createdAt,value
2018-07-02T00:00:32.609Z,12.90
2018-07-02T00:05:47.079Z,12.70
2018-07-02T00:10:50.264Z,12.60
2018-07-02T00:15:53.337Z,12.60
2018-07-02T00:20:56.360Z,12.60
2018-07-02T00:25:59.421Z,12.60
2018-07-02T00:31:02.508Z,12.60
2018-07-02T00:36:05.803Z,12.50
2018-07-02T00:41:09.504Z,12.50
2018-07-02T00:46:12.619Z,12.40
2018-07-02T00:51:15.727Z,12.30
2018-07-02T00:56:18.840Z,12.30
2018-07-02T01:01:22.059Z,12.30
2018-07-02T01:06:25.141Z,12.20
2018-07-02T01:11:28.187Z,12.10
2018-07-02T01:16:31.440Z,12.10
2018-07-02T01:26:37.459Z,12.00
2018-07-02T01:36:43.437Z,11.90
2018-07-02T01:41:46.544Z,11.80
2018-07-02T01:46:49.608Z,11.70
2018-07-02T01:51:52.652Z,11.60
2018-07-02T01:56:55.728Z,11.60
2018-07-02T02:01:58.768Z,11.60
2018-07-02T02:07:01.866Z,11.60
2018-07-02T02:12:05.016Z,11.50
2018-07-02T02:17:08.048Z,11.50
2018-07-02T02:22:11.075Z,11.50
2018-07-02T02:27:14.360Z,11.40
2018-07-02T02:32:17.420Z,11.30
2018-07-02T02:37:20.500Z,11.10
2018-07-02T02:42:23.554Z,11.00
2018-07-02T02:47:26.603Z,11.00
2018-07-02T02:52:29.700Z,10.90
2018-07-02T02:57:32.733Z,11.10
2018-07-02T03:02:35.769Z,11.20
2018-07-02T03:07:38.849Z,11.20
2018-07-02T03:12:41.968Z,11.20
2018-07-02T03:17:45.041Z,11.20
2018-07-02T03:22:48.089Z,11.20
2018-07-02T03:27:51.156Z,11.20
2018-07-02T03:32:54.236Z,11.20
2018-07-02T03:37:57.758Z,11.20
2018-07-02T03:43:00.888Z,11.30
2018-07-02T03:48:03.967Z,11.30
2018-07-02T03:53:07.022Z,11.30
2018-07-02T03:58:10.215Z,11.40
2018-07-02T04:03:13.283Z,11.50
2018-07-02T04:08:16.511Z,11.60
2018-07-02T04:13:19.590Z,11.70
2018-07-02T04:18:22.720Z,11.70
2018-07-02T04:23:25.785Z,11.70
2018-07-02T04:28:28.834Z,11.70
2018-07-02T04:33:31.968Z,11.70
2018-07-02T04:38:35.391Z,11.80
2018-07-02T04:43:38.523Z,11.90
2018-07-02T04:48:41.611Z,12.00
2018-07-02T04:53:44.771Z,12.20
2018-07-02T04:58:50.053Z,12.40
2018-07-02T05:03:53.146Z,12.50
2018-07-02T05:08:56.222Z,12.70
2018-07-02T05:13:59.250Z,12.80
2018-07-02T05:19:02.389Z,12.90
2018-07-02T05:24:05.444Z,13.20
2018-07-02T05:29:08.531Z,13.40
2018-07-02T05:34:11.710Z,13.70
2018-07-02T05:39:14.750Z,14.00
2018-07-02T05:49:20.953Z,14.70
2018-07-02T05:59:26.880Z,15.40
2018-07-02T06:04:30.109Z,16.40
2018-07-02T06:09:33.205Z,17.60
2018-07-02T06:14:36.494Z,18.80
2018-07-02T06:19:39.576Z,19.40
2018-07-02T06:24:42.645Z,19.70
2018-07-02T06:29:46.174Z,20.50
2018-07-02T06:44:55.220Z,21.90
2018-07-02T06:49:58.248Z,22.60
2018-07-02T06:55:01.404Z,23.20
2018-07-02T07:00:05.459Z,23.40
2018-07-02T07:05:08.612Z,23.60
2018-07-02T07:10:11.656Z,24.40
2018-07-02T07:15:14.713Z,24.40
2018-07-02T07:20:17.972Z,24.50
2018-07-02T07:25:21.076Z,24.70
2018-07-02T07:30:24.182Z,25.30
2018-07-02T07:35:27.292Z,26.00
2018-07-02T07:40:30.552Z,26.40
2018-07-02T07:45:33.581Z,26.30
2018-07-02T07:50:36.640Z,26.10
2018-07-02T07:55:39.937Z,26.30
2018-07-02T08:00:43.025Z,25.90
2018-07-02T08:05:46.093Z,25.70
2018-07-02T08:10:49.209Z,25.00
2018-07-02T08:15:52.236Z,25.90
2018-07-02T08:20:55.253Z,26.20
2018-07-02T08:31:01.224Z,25.60
2018-07-02T08:36:05.339Z,25.80
2018-07-02T08:41:08.466Z,26.60
2018-07-02T08:46:11.569Z,26.50
2018-07-02T08:51:14.671Z,26.90
2018-07-02T08:56:17.842Z,25.80
2018-07-02T09:01:20.936Z,25.90
2018-07-02T09:06:24.042Z,25.30
2018-07-02T09:11:27.188Z,24.40
2018-07-02T09:16:30.268Z,23.60
2018-07-02T09:21:33.351Z,23.20
2018-07-02T09:26:36.408Z,22.70
2018-07-02T09:31:39.471Z,22.90
2018-07-02T09:36:42.528Z,22.70
2018-07-02T09:41:45.592Z,22.30
2018-07-02T09:46:48.628Z,22.10
2018-07-02T09:51:51.672Z,22.40
2018-07-02T09:56:54.731Z,22.70
2018-07-02T10:01:57.792Z,22.40
2018-07-02T10:07:00.847Z,22.30
2018-07-02T10:12:03.893Z,22.30
2018-07-02T10:17:07.049Z,21.90
2018-07-02T10:22:10.155Z,21.80
2018-07-02T10:27:13.296Z,21.40
2018-07-02T10:32:16.341Z,21.50
2018-07-02T10:37:19.493Z,21.70
2018-07-02T10:42:22.793Z,21.80
2018-07-02T10:47:26.296Z,21.30
2018-07-02T10:52:29.324Z,21.10
2018-07-02T10:57:32.342Z,21.70
2018-07-02T11:02:35.412Z,22.30
2018-07-02T11:07:38.445Z,22.50
2018-07-02T11:12:41.459Z,22.40
2018-07-02T11:17:44.659Z,21.90
2018-07-02T11:22:47.757Z,21.80
2018-07-02T11:27:50.769Z,22.00
2018-07-02T11:32:53.816Z,21.90
2018-07-02T11:37:56.860Z,21.90
2018-07-02T11:43:00.044Z,22.20
2018-07-02T11:48:03.105Z,22.00
2018-07-02T11:53:06.403Z,21.90
2018-07-02T12:03:12.489Z,22.40
2018-07-02T12:08:15.634Z,22.90
2018-07-02T12:13:18.708Z,23.10
2018-07-02T12:18:21.791Z,23.00
2018-07-02T12:23:24.816Z,22.80
2018-07-02T12:28:28.069Z,22.30
2018-07-02T12:33:31.265Z,22.00
2018-07-02T12:38:34.282Z,21.80
2018-07-02T12:43:37.523Z,22.10
2018-07-02T12:48:40.652Z,22.50
2018-07-02T12:53:43.776Z,22.60
2018-07-02T12:58:47.207Z,23.10
2018-07-02T13:03:50.929Z,23.30
2018-07-02T13:08:53.971Z,23.10
2018-07-02T13:13:57.082Z,23.10
2018-07-02T13:19:00.196Z,22.60
2018-07-02T13:24:03.338Z,22.20
2018-07-02T13:29:06.375Z,21.90
2018-07-02T13:34:09.428Z,21.90
2018-07-02T13:39:12.644Z,22.20
2018-07-02T13:44:15.981Z,22.20
2018-07-02T13:49:19.187Z,22.40
2018-07-02T13:54:22.260Z,22.90
2018-07-02T13:59:25.335Z,23.30
2018-07-02T14:04:28.457Z,23.20
2018-07-02T14:09:31.572Z,23.10
2018-07-02T14:14:34.622Z,23.30
2018-07-02T14:19:37.668Z,23.60
2018-07-02T14:24:40.698Z,23.90
2018-07-02T14:29:43.757Z,23.90
2018-07-02T14:34:46.832Z,24.30
2018-07-02T14:44:52.830Z,23.50
2018-07-02T14:49:55.749Z,23.60
2018-07-02T14:54:58.760Z,24.00
2018-07-02T15:05:27.499Z,24.00
2018-07-02T15:10:30.545Z,23.80
2018-07-02T15:15:33.712Z,23.80
2018-07-02T15:20:36.697Z,23.70
2018-07-02T15:25:39.792Z,23.70
2018-07-02T15:30:42.931Z,23.60
2018-07-02T15:35:46.055Z,23.50
2018-07-02T15:40:49.133Z,23.60
2018-07-02T15:45:52.179Z,23.70
2018-07-02T15:50:55.231Z,23.60
2018-07-02T15:55:58.371Z,23.40
2018-07-02T16:01:03.412Z,23.30
2018-07-02T16:06:06.627Z,23.20
2018-07-02T16:11:09.721Z,22.90
2018-07-02T16:16:12.792Z,22.80
2018-07-02T16:21:15.887Z,22.60
2018-07-02T16:26:18.986Z,22.60
2018-07-02T16:31:22.045Z,22.60
2018-07-02T16:36:25.068Z,22.60
2018-07-02T16:41:28.192Z,22.60
2018-07-02T16:46:31.267Z,22.80
2018-07-02T16:51:34.680Z,22.90
2018-07-02T16:56:37.803Z,23.00
2018-07-02T17:01:40.935Z,23.10
2018-07-02T17:06:45.039Z,23.10
2018-07-02T17:11:48.128Z,23.20
2018-07-02T17:16:51.278Z,23.40
2018-07-02T17:21:54.351Z,23.60
2018-07-02T17:26:57.487Z,23.50
2018-07-02T17:32:00.676Z,23.20
2018-07-02T17:37:04.009Z,22.90
2018-07-02T17:42:07.064Z,22.80
2018-07-02T17:47:10.418Z,22.70
2018-07-02T17:52:13.511Z,22.60
2018-07-02T17:57:16.647Z,22.60
2018-07-02T18:02:19.675Z,22.50
2018-07-02T18:07:22.786Z,22.40
2018-07-02T18:12:25.868Z,22.30
2018-07-02T18:17:28.922Z,22.20
2018-07-02T18:22:31.990Z,22.10
2018-07-02T18:27:35.057Z,22.10
2018-07-02T18:32:38.141Z,22.00
2018-07-02T18:37:41.236Z,21.90
2018-07-02T18:42:44.270Z,21.80
2018-07-02T18:47:47.561Z,21.70
2018-07-02T18:52:50.598Z,21.60
2018-07-02T18:57:53.626Z,21.50
2018-07-02T19:02:56.697Z,21.40
2018-07-02T19:07:59.788Z,21.20
2018-07-02T19:13:02.852Z,21.00
2018-07-02T19:18:06.306Z,20.90
2018-07-02T19:23:09.701Z,20.80
2018-07-02T19:28:12.852Z,20.70
2018-07-02T19:33:16.940Z,20.60
2018-07-02T19:38:19.984Z,20.40
2018-07-02T19:43:23.321Z,20.10
2018-07-02T19:48:26.372Z,20.00
2018-07-02T19:53:29.511Z,19.80
2018-07-02T19:58:32.616Z,19.80
2018-07-02T20:03:35.793Z,19.70
2018-07-02T20:08:38.980Z,19.40
2018-07-02T20:13:42.064Z,19.20
2018-07-02T20:18:45.477Z,19.00
2018-07-02T20:23:48.610Z,18.70
2018-07-02T20:28:51.641Z,18.50
2018-07-02T20:33:54.770Z,18.30
2018-07-02T20:38:58.195Z,18.10
2018-07-02T20:44:01.275Z,18.00
2018-07-02T20:49:04.845Z,17.80
2018-07-02T20:54:07.961Z,17.60
2018-07-02T20:59:11.136Z,17.50
2018-07-02T21:04:14.205Z,17.40
2018-07-02T21:09:17.568Z,17.20
2018-07-02T21:14:23.172Z,17.10
2018-07-02T21:19:27.317Z,17.00
2018-07-02T21:24:30.353Z,16.90
2018-07-02T21:29:33.435Z,16.70
2018-07-02T21:34:36.472Z,16.60
2018-07-02T21:39:39.639Z,16.50
2018-07-02T21:44:42.678Z,16.40
2018-07-02T21:49:45.756Z,16.30
2018-07-02T21:54:48.798Z,16.20
2018-07-02T21:59:51.894Z,16.00
2018-07-02T22:04:54.952Z,15.90
2018-07-02T22:09:57.980Z,15.90
2018-07-02T22:15:00.983Z,15.80
2018-07-02T22:20:04.447Z,15.70
2018-07-02T22:25:07.504Z,15.60
2018-07-02T22:30:10.604Z,15.50
2018-07-02T22:40:16.508Z,15.30
2018-07-02T22:45:19.564Z,15.30
2018-07-02T22:50:22.646Z,15.20
2018-07-02T23:00:28.703Z,15.00
2018-07-02T23:05:31.812Z,14.90
2018-07-02T23:10:35.041Z,14.90
2018-07-02T23:15:38.156Z,14.80
2018-07-02T23:20:41.264Z,14.70
2018-07-02T23:25:44.321Z,14.70
2018-07-02T23:30:47.383Z,14.60
2018-07-02T23:35:50.505Z,14.50
2018-07-02T23:40:53.571Z,14.40
2018-07-02T23:45:56.635Z,14.30
2018-07-02T23:50:59.671Z,14.30
2018-07-02T23:56:02.691Z,14.20
